Time;durP1;ratioP1;P1;durP2;ratioP2;P2;SDS_P1;SDS_P2;PMS_P1;PMS_P2;Temp;Humidity;BMP_temperature;BMP_pressure;BME280_temperature;BME280_humidity;BME280_pressure;Samples;Min_cycle;Max_cycle;Signal;HPM_P1;HPM_P2
2023/09/07 00:01:59;;;;;;;4.68;2.00;;;22.00;99.90;;;;;;4231464;28;20483;-80
2023/09/07 00:04:00;;;;;;;8.35;3.35;;;22.00;99.90;;;;;;4231079;28;20043;-80
2023/09/07 00:06:01;;;;;;;5.68;2.35;;;21.80;99.90;;;;;;4234468;27;20043;-80
2023/09/07 00:08:02;;;;;;;4.88;2.35;;;21.90;99.90;;;;;;4231225;28;20071;-80
2023/09/07 00:10:03;;;;;;;6.10;2.33;;;21.90;99.90;;;;;;4230929;28;20096;-80
2023/09/07 00:12:04;;;;;;;3.78;2.08;;;21.90;99.90;;;;;;4231423;28;20088;-80
2023/09/07 00:14:05;;;;;;;2.67;2.03;;;21.90;99.90;;;;;;4231176;28;20052;-81
2023/09/07 00:16:07;;;;;;;4.35;1.95;;;21.80;99.90;;;;;;4231221;28;20131;-80
2023/09/07 00:18:08;;;;;;;3.83;2.22;;;21.50;99.90;;;;;;4230607;28;20043;-80
2023/09/07 00:20:10;;;;;;;7.15;2.30;;;21.80;99.90;;;;;;4231076;28;20479;-81
2023/09/07 00:22:11;;;;;;;6.72;3.25;;;21.70;99.90;;;;;;4230920;28;20162;-80
2023/09/07 00:24:12;;;;;;;5.13;2.20;;;22.10;99.90;;;;;;4232633;28;20465;-80
2023/09/07 00:26:12;;;;;;;2.92;2.00;;;21.70;99.90;;;;;;4248038;28;20038;-81
2023/09/07 00:28:13;;;;;;;6.78;2.33;;;21.70;99.90;;;;;;4229790;28;20485;-80
2023/09/07 00:30:14;;;;;;;3.13;2.22;;;21.60;99.90;;;;;;4247872;28;20096;-80
2023/09/07 00:32:15;;;;;;;3.22;2.28;;;21.60;99.90;;;;;;4248045;28;20039;-80
2023/09/07 00:34:16;;;;;;;3.38;1.95;;;21.50;99.90;;;;;;4248304;28;20427;-80
2023/09/07 00:36:18;;;;;;;3.53;2.05;;;21.50;99.90;;;;;;4248111;28;20039;-80
2023/09/07 00:38:19;;;;;;;4.93;1.90;;;21.50;99.90;;;;;;4248237;28;20532;-80
2023/09/07 00:40:20;;;;;;;2.95;2.03;;;21.40;99.90;;;;;;4247632;28;20043;-80
2023/09/07 00:42:20;;;;;;;2.50;2.15;;;21.40;99.90;;;;;;4242261;28;20039;-80
2023/09/07 00:44:21;;;;;;;6.53;2.65;;;21.30;99.90;;;;;;4248156;28;20035;-80
2023/09/07 00:46:22;;;;;;;3.95;2.13;;;21.20;99.90;;;;;;4247859;28;20047;-80
2023/09/07 00:48:23;;;;;;;3.50;2.28;;;21.20;99.90;;;;;;4229609;28;20054;-80
2023/09/07 00:50:24;;;;;;;3.22;2.10;;;21.20;99.90;;;;;;4247355;28;20064;-80
2023/09/07 00:52:25;;;;;;;3.47;2.63;;;21.10;99.90;;;;;;4229965;28;20130;-80
2023/09/07 00:54:26;;;;;;;3.63;2.13;;;21.10;99.90;;;;;;4247804;28;20040;-80
2023/09/07 00:56:26;;;;;;;4.60;2.33;;;21.00;99.90;;;;;;4247713;28;20094;-80
2023/09/07 00:58:27;;;;;;;4.43;2.08;;;21.00;99.90;;;;;;4246062;28;20114;-80
2023/09/07 01:00:28;;;;;;;4.88;2.20;;;20.90;99.90;;;;;;4230105;28;20040;-80
2023/09/07 01:02:30;;;;;;;2.58;2.00;;;20.90;99.90;;;;;;4212565;28;20067;-80
2023/09/07 01:04:31;;;;;;;4.03;1.90;;;20.90;99.90;;;;;;4230942;28;20114;-80
2023/09/07 01:06:55;;;;;;;5.57;2.42;;;20.90;99.90;;;;;;4230964;28;20046;-80
2023/09/07 01:09:00;;;;;;;4.65;2.40;;;20.80;99.90;;;;;;4230806;28;20053;-80
2023/09/07 01:11:00;;;;;;;4.60;2.30;;;20.80;99.90;;;;;;4230601;28;20127;-80
2023/09/07 01:13:01;;;;;;;6.07;2.20;;;20.70;99.90;;;;;;4230603;28;20438;-80
2023/09/07 01:15:04;;;;;;;6.53;2.97;;;20.70;99.90;;;;;;4230703;28;20058;-80
2023/09/07 01:17:06;;;;;;;5.32;2.70;;;20.60;99.90;;;;;;4231925;28;20051;-80
2023/09/07 01:19:07;;;;;;;2.97;2.28;;;20.70;99.90;;;;;;4242729;27;20081;-80
2023/09/07 01:21:11;;;;;;;3.60;2.40;;;20.60;99.90;;;;;;4250974;27;20058;-80
2023/09/07 01:23:13;;;;;;;3.72;2.83;;;20.60;99.90;;;;;;4250994;27;20047;-80
2023/09/07 01:25:14;;;;;;;3.45;2.80;;;20.60;99.90;;;;;;4232547;28;20127;-80
2023/09/07 01:27:15;;;;;;;5.00;2.63;;;20.50;99.90;;;;;;4215162;28;20043;-80
2023/09/07 01:29:16;;;;;;;3.97;2.50;;;20.50;99.90;;;;;;4250597;27;20046;-80
2023/09/07 01:31:17;;;;;;;7.10;2.78;;;20.40;99.90;;;;;;4250665;27;20126;-80
2023/09/07 01:33:18;;;;;;;7.53;2.75;;;20.40;99.90;;;;;;4250763;27;20039;-80
2023/09/07 01:35:21;;;;;;;5.50;2.88;;;20.40;99.90;;;;;;4232530;28;20388;-80
2023/09/07 01:37:23;;;;;;;5.18;2.75;;;20.40;99.90;;;;;;4243091;27;20079;-80
2023/09/07 01:39:24;;;;;;;4.10;2.85;;;20.40;99.90;;;;;;4233610;28;20047;-80
2023/09/07 01:41:25;;;;;;;4.75;2.92;;;20.30;99.90;;;;;;4233256;28;20122;-80
2023/09/07 01:43:26;;;;;;;5.40;2.72;;;20.30;99.90;;;;;;4215582;28;20099;-80
2023/09/07 01:45:33;;;;;;;4.22;2.97;;;20.30;99.90;;;;;;4215137;28;20071;-80
2023/09/07 01:47:33;;;;;;;7.03;2.90;;;20.20;99.90;;;;;;4233309;28;20051;-80
2023/09/07 01:49:34;;;;;;;4.78;2.47;;;20.20;99.90;;;;;;4233194;28;20040;-80
2023/09/07 01:51:35;;;;;;;5.35;3.30;;;20.10;99.90;;;;;;4233432;28;20036;-80
2023/09/07 01:53:36;;;;;;;2.95;2.42;;;20.00;99.90;;;;;;4233235;27;20051;-80
2023/09/07 01:55:36;;;;;;;5.95;2.72;;;19.90;99.90;;;;;;4218291;28;20512;-80
2023/09/07 01:57:37;;;;;;;6.80;2.70;;;19.90;99.90;;;;;;4233451;28;20047;-80
2023/09/07 01:59:38;;;;;;;4.78;3.10;;;19.80;99.90;;;;;;4234394;28;20043;-79
2023/09/07 02:01:40;;;;;;;3.50;2.78;;;19.80;99.90;;;;;;4239161;28;20039;-80
2023/09/07 02:03:40;;;;;;;4.07;2.78;;;19.80;99.90;;;;;;4238823;28;20563;-80
2023/09/07 02:05:43;;;;;;;4.60;2.92;;;19.70;99.90;;;;;;4238080;28;20052;-80
2023/09/07 02:07:44;;;;;;;5.55;3.42;;;19.70;99.90;;;;;;4216640;28;20051;-80
2023/09/07 02:09:45;;;;;;;6.22;3.13;;;19.60;99.90;;;;;;4233247;28;20089;-80
2023/09/07 02:11:45;;;;;;;8.00;3.80;;;19.60;99.90;;;;;;4215631;28;20431;-80
2023/09/07 02:13:47;;;;;;;9.93;3.00;;;19.60;99.90;;;;;;4237074;27;20144;-80
2023/09/07 02:15:48;;;;;;;5.82;3.20;;;19.50;99.90;;;;;;4233131;28;20144;-80
2023/09/07 02:17:49;;;;;;;4.70;3.60;;;19.50;99.90;;;;;;4214767;28;20044;-79
2023/09/07 02:19:50;;;;;;;5.95;3.45;;;19.50;99.90;;;;;;4233242;27;20456;-80
2023/09/07 02:21:52;;;;;;;7.28;3.33;;;19.40;99.90;;;;;;4233211;28;20079;-80
2023/09/07 02:23:53;;;;;;;5.78;3.22;;;19.40;99.90;;;;;;4215207;28;20043;-79
2023/09/07 02:25:54;;;;;;;6.30;3.55;;;19.30;99.90;;;;;;4233325;28;20031;-80
2023/09/07 02:27:55;;;;;;;5.70;3.90;;;19.20;99.90;;;;;;4232340;28;20046;-80
2023/09/07 02:29:56;;;;;;;6.28;3.70;;;19.20;99.90;;;;;;4232507;28;20035;-80
2023/09/07 02:31:57;;;;;;;5.00;3.20;;;19.10;99.90;;;;;;4235233;27;20044;-80
2023/09/07 02:33:58;;;;;;;6.95;3.60;;;19.10;99.90;;;;;;4249835;27;20047;-80
2023/09/07 02:35:59;;;;;;;8.63;3.45;;;19.00;99.90;;;;;;4249768;27;20047;-80
2023/09/07 02:38:00;;;;;;;5.93;3.50;;;19.00;99.90;;;;;;4249371;27;20066;-80
2023/09/07 02:40:01;;;;;;;3.95;3.10;;;18.90;99.90;;;;;;4249356;27;20360;-80
2023/09/07 02:42:02;;;;;;;5.55;3.53;;;18.90;99.90;;;;;;4249683;27;20169;-80
2023/09/07 02:44:03;;;;;;;6.00;3.42;;;18.90;99.90;;;;;;4249740;27;20035;-79
2023/09/07 02:46:03;;;;;;;5.00;3.60;;;18.80;99.90;;;;;;4249674;27;20042;-80
2023/09/07 02:48:05;;;;;;;5.90;3.83;;;18.80;99.90;;;;;;4249171;27;20096;-80
2023/09/07 02:50:06;;;;;;;5.60;3.60;;;18.80;99.90;;;;;;4244614;27;20071;-80
2023/09/07 02:52:07;;;;;;;6.72;3.70;;;18.80;99.90;;;;;;4249330;27;20043;-80
2023/09/07 02:54:08;;;;;;;4.68;3.20;;;18.80;99.90;;;;;;4249535;27;20099;-80
2023/09/07 02:56:10;;;;;;;4.93;3.45;;;18.70;99.90;;;;;;4249373;27;20433;-79
2023/09/07 02:58:11;;;;;;;8.52;3.45;;;18.70;99.90;;;;;;4249454;27;20043;-80
2023/09/07 03:00:12;;;;;;;9.05;3.80;;;18.70;99.90;;;;;;4249245;27;20077;-80
2023/09/07 03:02:13;;;;;;;5.07;3.60;;;18.70;99.90;;;;;;4249507;27;20039;-80
2023/09/07 03:04:13;;;;;;;6.72;3.50;;;18.70;99.90;;;;;;4249064;27;20049;-79
2023/09/07 03:06:18;;;;;;;6.70;3.60;;;18.70;99.90;;;;;;4249270;27;20444;-80
2023/09/07 03:08:19;;;;;;;8.82;3.60;;;18.70;99.90;;;;;;4242949;27;20230;-80
2023/09/07 03:10:19;;;;;;;8.10;4.20;;;18.60;99.90;;;;;;4248872;27;20039;-80
2023/09/07 03:12:21;;;;;;;5.00;3.63;;;18.60;99.90;;;;;;4248183;27;20443;-80
2023/09/07 03:14:22;;;;;;;4.95;3.60;;;18.60;99.90;;;;;;4230559;28;20134;-80
2023/09/07 03:16:23;;;;;;;6.35;3.53;;;18.50;99.90;;;;;;4230853;28;20048;-80
2023/09/07 03:18:24;;;;;;;4.78;3.42;;;18.50;99.90;;;;;;4249094;27;20039;-79
2023/09/07 03:20:24;;;;;;;6.75;3.67;;;18.50;99.90;;;;;;4248729;27;20100;-79
2023/09/07 03:22:25;;;;;;;7.20;3.60;;;18.40;99.90;;;;;;4249088;27;20039;-79
2023/09/07 03:24:28;;;;;;;5.70;3.70;;;18.40;99.90;;;;;;4248921;27;20047;-80
2023/09/07 03:26:28;;;;;;;4.57;3.33;;;18.40;99.90;;;;;;4243988;27;20380;-79
2023/09/07 03:28:29;;;;;;;6.90;3.78;;;18.40;99.90;;;;;;4249008;27;20080;-80
2023/09/07 03:30:30;;;;;;;4.30;3.30;;;18.30;99.90;;;;;;4248625;27;20043;-80
2023/09/07 03:32:32;;;;;;;7.82;3.95;;;18.30;99.90;;;;;;4248575;27;20105;-80
2023/09/07 03:34:33;;;;;;;6.50;3.90;;;18.30;99.90;;;;;;4248829;27;20047;-80
2023/09/07 03:36:34;;;;;;;6.40;3.58;;;18.20;99.90;;;;;;4248883;27;20038;-80
2023/09/07 03:38:35;;;;;;;6.32;3.90;;;18.20;99.90;;;;;;4248140;27;20043;-80
2023/09/07 03:40:35;;;;;;;5.03;3.80;;;17.30;99.90;;;;;;4230639;28;20528;-80
2023/09/07 03:42:37;;;;;;;8.60;3.88;;;18.20;99.90;;;;;;4248698;27;20043;-80
2023/09/07 03:44:39;;;;;;;6.43;3.72;;;18.20;99.90;;;;;;4241925;27;20114;-80
2023/09/07 03:46:40;;;;;;;8.27;4.03;;;18.20;99.90;;;;;;4231394;28;20036;-80
2023/09/07 03:48:40;;;;;;;8.77;4.68;;;18.20;99.90;;;;;;4231500;28;20093;-80
2023/09/07 03:50:41;;;;;;;6.75;4.03;;;18.20;99.90;;;;;;4231126;28;20035;-80
2023/09/07 03:52:42;;;;;;;5.28;3.58;;;18.10;99.90;;;;;;4231561;28;20036;-80
2023/09/07 03:54:43;;;;;;;7.13;4.20;;;18.10;99.90;;;;;;4213261;28;20110;-80
2023/09/07 03:56:43;;;;;;;7.80;4.07;;;18.10;99.90;;;;;;4231538;28;20137;-80
2023/09/07 03:58:47;;;;;;;7.03;3.78;;;18.10;99.90;;;;;;4231470;28;20040;-80
2023/09/07 04:00:48;;;;;;;5.78;4.18;;;18.10;99.90;;;;;;4231205;28;20054;-80
2023/09/07 04:02:48;;;;;;;4.68;3.55;;;18.10;99.90;;;;;;4234477;27;20396;-79
2023/09/07 04:04:50;;;;;;;5.95;3.60;;;18.00;99.90;;;;;;4248123;27;20057;-80
2023/09/07 04:06:51;;;;;;;8.48;4.40;;;18.00;99.90;;;;;;4248504;27;20406;-80
2023/09/07 04:08:52;;;;;;;5.72;4.13;;;18.00;99.90;;;;;;4248310;27;20066;-80
2023/09/07 04:10:52;;;;;;;5.90;3.65;;;18.00;99.90;;;;;;4248257;27;20035;-80
2023/09/07 04:12:53;;;;;;;6.40;3.63;;;17.90;99.90;;;;;;4229841;28;20075;-80
2023/09/07 04:14:54;;;;;;;5.38;3.90;;;17.90;99.90;;;;;;4229756;28;20241;-79
2023/09/07 04:16:55;;;;;;;6.78;3.85;;;17.90;99.90;;;;;;4248139;27;20038;-80
2023/09/07 04:18:55;;;;;;;6.63;4.13;;;17.80;99.90;;;;;;4242617;27;20081;-79
2023/09/07 04:21:08;;;;;;;6.90;3.65;;;17.80;99.90;;;;;;4235167;27;20453;-80
2023/09/07 04:23:09;;;;;;;5.55;3.70;;;17.80;99.90;;;;;;4231288;28;20044;-80
2023/09/07 04:25:11;;;;;;;6.22;3.88;;;17.80;99.90;;;;;;4231357;28;20048;-80
2023/09/07 04:27:11;;;;;;;5.18;3.45;;;17.80;99.90;;;;;;4230949;28;20050;-80
2023/09/07 04:29:12;;;;;;;10.90;3.72;;;17.80;99.90;;;;;;4212409;28;20595;-80
2023/09/07 04:31:13;;;;;;;5.00;3.45;;;17.70;99.90;;;;;;4230776;28;20058;-80
2023/09/07 04:33:14;;;;;;;6.35;3.80;;;17.70;99.90;;;;;;4231244;28;20118;-81
2023/09/07 04:35:15;;;;;;;7.03;4.05;;;17.70;99.90;;;;;;4232080;28;20040;-80
2023/09/07 04:37:15;;;;;;;7.50;4.40;;;17.70;99.90;;;;;;4229079;28;20471;-80
2023/09/07 04:39:16;;;;;;;6.10;3.83;;;17.60;99.90;;;;;;4248041;28;20479;-80
2023/09/07 04:41:17;;;;;;;7.07;4.65;;;17.60;99.90;;;;;;4229694;28;20048;-81
2023/09/07 04:43:18;;;;;;;7.10;4.47;;;17.50;99.90;;;;;;4247962;28;20036;-80
2023/09/07 04:45:19;;;;;;;6.43;4.60;;;17.50;99.90;;;;;;4247416;28;20043;-81
2023/09/07 04:47:19;;;;;;;6.75;3.92;;;17.50;99.90;;;;;;4248060;28;20461;-80
2023/09/07 04:49:24;;;;;;;6.95;5.03;;;17.50;99.90;;;;;;4229349;28;20118;-80
2023/09/07 04:51:25;;;;;;;6.13;4.72;;;17.40;99.90;;;;;;4247731;27;20543;-80
2023/09/07 04:53:29;;;;;;;5.30;3.78;;;17.40;99.90;;;;;;4248005;27;20035;-79
2023/09/07 04:55:29;;;;;;;5.55;4.38;;;17.40;99.90;;;;;;4245073;27;20043;-79
2023/09/07 04:57:31;;;;;;;8.05;5.00;;;17.30;99.90;;;;;;4251110;27;20070;-79
2023/09/07 04:59:31;;;;;;;9.57;4.97;;;17.30;99.90;;;;;;4245767;27;20036;-80
2023/09/07 05:01:32;;;;;;;7.45;4.07;;;17.30;99.90;;;;;;4237220;27;20074;-80
2023/09/07 05:03:33;;;;;;;6.55;4.35;;;17.30;99.90;;;;;;4234474;28;20123;-80
2023/09/07 05:05:34;;;;;;;7.22;4.50;;;17.30;99.90;;;;;;4234032;28;20436;-79
2023/09/07 05:07:35;;;;;;;8.25;4.40;;;17.30;99.90;;;;;;4236844;27;20040;-80
2023/09/07 05:09:35;;;;;;;7.85;4.70;;;17.30;99.90;;;;;;4233215;28;20154;-80
2023/09/07 05:11:36;;;;;;;8.65;4.38;;;17.30;99.90;;;;;;4233693;28;20092;-80
2023/09/07 05:13:37;;;;;;;6.93;4.57;;;17.30;99.90;;;;;;4215494;28;20044;-80
2023/09/07 05:15:50;;;;;;;7.82;4.25;;;17.20;99.90;;;;;;4233814;28;20048;-80
2023/09/07 05:17:50;;;;;;;7.85;4.72;;;17.30;99.90;;;;;;4233846;28;20047;-80
2023/09/07 05:19:51;;;;;;;5.32;4.40;;;17.20;99.90;;;;;;4233277;28;20120;-80
2023/09/07 05:21:52;;;;;;;7.43;4.60;;;17.20;99.90;;;;;;4231385;28;20051;-80
2023/09/07 05:23:52;;;;;;;7.57;4.70;;;17.20;99.90;;;;;;4246466;27;20379;-80
2023/09/07 05:25:54;;;;;;;6.85;4.40;;;17.20;99.90;;;;;;4250621;27;20035;-80
2023/09/07 05:27:55;;;;;;;7.68;4.55;;;17.20;99.90;;;;;;4250667;27;20095;-80
2023/09/07 05:29:56;;;;;;;8.95;4.60;;;17.20;99.90;;;;;;4250554;27;20035;-80
2023/09/07 05:31:57;;;;;;;7.57;4.80;;;17.20;99.90;;;;;;4250637;27;20100;-81
2023/09/07 05:33:57;;;;;;;8.05;4.47;;;17.30;99.90;;;;;;4249853;27;20125;-80
2023/09/07 05:35:58;;;;;;;5.90;4.53;;;17.30;99.90;;;;;;4250498;27;20555;-80
2023/09/07 05:37:59;;;;;;;8.70;4.35;;;17.40;99.90;;;;;;4232356;28;20055;-80
2023/09/07 05:39:59;;;;;;;9.27;5.55;;;17.40;99.90;;;;;;4250885;27;20043;-80
2023/09/07 05:42:00;;;;;;;10.20;5.53;;;17.40;99.90;;;;;;4244841;27;20043;-80
2023/09/07 05:44:02;;;;;;;6.65;4.40;;;17.50;99.90;;;;;;4250399;27;20126;-80
2023/09/07 05:46:03;;;;;;;9.10;4.68;;;17.50;99.90;;;;;;4249923;27;20475;-79
2023/09/07 05:48:04;;;;;;;5.78;4.30;;;17.60;99.90;;;;;;4249713;27;20176;-79
2023/09/07 05:50:05;;;;;;;8.63;4.82;;;17.60;99.90;;;;;;4231335;28;20039;-79
2023/09/07 05:52:07;;;;;;;8.10;5.05;;;17.70;99.90;;;;;;4248926;27;20100;-79
2023/09/07 05:54:08;;;;;;;6.97;4.60;;;17.70;99.90;;;;;;4249848;27;20096;-79
2023/09/07 05:56:09;;;;;;;11.00;4.90;;;17.80;99.90;;;;;;4250159;27;20448;-79
2023/09/07 05:58:09;;;;;;;11.95;4.78;;;17.80;99.90;;;;;;4239916;27;20054;-79
2023/09/07 06:00:11;;;;;;;9.95;4.75;;;17.80;99.90;;;;;;4232713;28;20480;-79
2023/09/07 06:02:11;;;;;;;9.80;4.68;;;17.90;99.90;;;;;;4214858;28;20468;-79
2023/09/07 06:04:12;;;;;;;7.55;5.25;;;17.90;99.90;;;;;;4231504;28;20062;-79
2023/09/07 06:06:13;;;;;;;11.27;5.32;;;17.90;99.90;;;;;;4232963;28;20377;-79
2023/09/07 06:08:14;;;;;;;8.43;4.95;;;18.00;99.90;;;;;;4232885;28;20122;-79
2023/09/07 06:10:15;;;;;;;9.85;4.85;;;17.90;99.90;;;;;;4214490;28;20083;-79
2023/09/07 06:12:15;;;;;;;7.85;4.85;;;18.00;99.90;;;;;;4232840;28;20047;-79
2023/09/07 06:14:16;;;;;;;7.00;4.82;;;18.10;99.90;;;;;;4232449;27;20115;-79
2023/09/07 06:16:17;;;;;;;8.57;5.07;;;18.10;99.90;;;;;;4245063;27;20047;-79
2023/09/07 06:18:18;;;;;;;6.55;4.70;;;18.10;99.90;;;;;;4231505;28;20035;-79
2023/09/07 06:20:19;;;;;;;6.75;5.43;;;18.10;99.90;;;;;;4249858;27;20176;-79
2023/09/07 06:22:23;;;;;;;6.85;4.45;;;18.20;99.90;;;;;;4249887;27;20035;-80
2023/09/07 06:24:24;;;;;;;8.48;5.10;;;18.30;99.90;;;;;;4249339;27;20039;-79
2023/09/07 06:26:25;;;;;;;7.13;4.38;;;18.30;99.90;;;;;;4249667;27;20409;-80
2023/09/07 06:28:25;;;;;;;6.50;4.40;;;18.30;99.90;;;;;;4249242;27;20043;-79
2023/09/07 06:30:27;;;;;;;11.18;5.15;;;18.40;99.90;;;;;;4249612;27;20658;-79
2023/09/07 06:32:28;;;;;;;10.88;5.78;;;18.50;99.90;;;;;;4249131;27;20047;-79
2023/09/07 06:34:29;;;;;;;9.20;4.38;;;18.50;99.90;;;;;;4243766;27;20157;-79
2023/09/07 06:36:30;;;;;;;8.30;4.70;;;18.30;99.90;;;;;;4249398;27;20359;-79
2023/09/07 06:38:31;;;;;;;6.28;4.72;;;18.70;99.90;;;;;;4231246;28;20079;-79
2023/09/07 06:40:32;;;;;;;7.30;5.00;;;18.80;99.90;;;;;;4249266;27;20051;-78
2023/09/07 06:42:33;;;;;;;13.00;5.32;;;18.80;99.90;;;;;;4248817;27;20035;-79
2023/09/07 06:44:34;;;;;;;6.63;4.80;;;18.90;99.90;;;;;;4230817;28;20511;-79
2023/09/07 06:46:35;;;;;;;14.35;5.30;;;19.00;99.90;;;;;;4249363;27;20043;-78
2023/09/07 06:48:35;;;;;;;9.07;4.30;;;19.10;99.90;;;;;;4231118;28;20078;-79
2023/09/07 06:50:37;;;;;;;10.45;4.88;;;19.20;99.90;;;;;;4244879;27;20070;-79
2023/09/07 06:52:38;;;;;;;8.73;5.00;;;19.30;99.90;;;;;;4244225;27;20398;-79
2023/09/07 06:54:39;;;;;;;7.90;5.22;;;19.40;99.90;;;;;;4240501;27;20140;-79
2023/09/07 06:56:39;;;;;;;9.57;4.25;;;19.60;99.90;;;;;;4221787;28;20051;-79
2023/09/07 06:58:40;;;;;;;8.82;4.88;;;19.70;99.90;;;;;;4219951;28;20086;-79
2023/09/07 07:00:41;;;;;;;7.57;4.75;;;19.90;99.90;;;;;;4234557;27;20483;-79
2023/09/07 07:02:41;;;;;;;6.60;4.13;;;20.00;99.90;;;;;;4237693;27;20036;-79
2023/09/07 07:04:45;;;;;;;5.60;4.40;;;20.20;99.90;;;;;;4232493;27;20043;-79
2023/09/07 07:06:46;;;;;;;7.60;4.40;;;20.40;99.90;;;;;;4224452;28;20050;-79
2023/09/07 07:08:46;;;;;;;8.88;4.82;;;20.50;99.90;;;;;;4222711;28;20541;-79
2023/09/07 07:10:47;;;;;;;7.55;4.60;;;20.70;99.90;;;;;;4235186;27;20071;-79
2023/09/07 07:12:48;;;;;;;6.47;4.18;;;20.80;99.90;;;;;;4232670;27;20036;-79
2023/09/07 07:14:49;;;;;;;7.25;4.53;;;20.90;99.90;;;;;;4222649;28;20157;-79
2023/09/07 07:16:49;;;;;;;8.18;4.78;;;21.10;99.90;;;;;;4222185;28;20047;-79
2023/09/07 07:18:50;;;;;;;6.93;4.18;;;21.30;99.90;;;;;;4213458;28;20040;-79
2023/09/07 07:20:50;;;;;;;7.10;4.80;;;21.40;99.90;;;;;;4221327;28;20046;-79
2023/09/07 07:22:51;;;;;;;8.15;4.82;;;21.50;99.90;;;;;;4218880;28;20118;-79
2023/09/07 07:24:52;;;;;;;6.43;4.30;;;21.70;99.90;;;;;;4224073;28;20027;-79
2023/09/07 07:26:52;;;;;;;9.18;4.40;;;21.90;99.90;;;;;;4225241;28;20040;-79
2023/09/07 07:28:53;;;;;;;5.85;3.97;;;22.00;99.90;;;;;;4214699;28;20106;-80
2023/09/07 07:30:54;;;;;;;6.82;4.35;;;22.10;99.90;;;;;;4216783;28;20051;-79
2023/09/07 07:32:55;;;;;;;7.53;4.50;;;22.20;99.90;;;;;;4218053;27;20052;-79
2023/09/07 07:34:57;;;;;;;5.68;4.03;;;22.40;99.90;;;;;;4214501;28;20085;-80
2023/09/07 07:36:57;;;;;;;6.75;4.32;;;22.50;99.90;;;;;;4215067;28;20090;-79
2023/09/07 07:38:58;;;;;;;5.53;4.30;;;22.60;99.90;;;;;;4230880;28;20035;-79
2023/09/07 07:40:59;;;;;;;10.43;4.38;;;22.70;99.90;;;;;;4231531;28;20061;-80
2023/09/07 07:43:00;;;;;;;6.45;4.07;;;22.80;99.90;;;;;;4226462;28;20036;-79
2023/09/07 07:45:00;;;;;;;6.05;3.95;;;22.90;99.90;;;;;;4215303;28;20039;-79
2023/09/07 07:47:01;;;;;;;7.90;4.50;;;23.10;99.90;;;;;;4229614;28;20035;-80
2023/09/07 07:49:02;;;;;;;6.63;3.80;;;23.20;99.90;;;;;;4224536;28;20066;-80
2023/09/07 07:51:05;;;;;;;5.65;3.95;;;23.40;99.90;;;;;;4213855;28;20043;-79
2023/09/07 07:53:07;;;;;;;6.25;3.95;;;23.50;99.90;;;;;;4213108;28;20101;-80
2023/09/07 07:55:08;;;;;;;5.28;3.90;;;23.60;99.90;;;;;;4214274;28;20097;-79
2023/09/07 07:57:09;;;;;;;6.18;3.47;;;23.80;99.90;;;;;;4215587;28;20127;-79
2023/09/07 07:59:09;;;;;;;5.65;3.60;;;23.90;99.90;;;;;;4223088;28;20374;-81
2023/09/07 08:01:18;;;;;;;5.07;3.60;;;24.00;99.90;;;;;;4247257;28;20036;-83
2023/09/07 08:03:19;;;;;;;7.85;3.75;;;23.50;99.90;;;;;;4225604;28;20040;-83
2023/09/07 08:05:22;;;;;;;4.25;3.03;;;24.30;99.90;;;;;;4237536;28;20036;-83
2023/09/07 08:07:23;;;;;;;7.88;4.20;;;24.40;99.90;;;;;;4240727;28;20024;-83
2023/09/07 08:09:24;;;;;;;4.95;3.42;;;24.50;99.90;;;;;;4221428;28;20063;-83
2023/09/07 08:11:26;;;;;;;6.03;3.28;;;24.70;99.90;;;;;;4237418;28;20080;-83
2023/09/07 08:13:28;;;;;;;8.50;3.55;;;24.90;99.90;;;;;;4231943;28;20063;-83
2023/09/07 08:15:29;;;;;;;4.70;3.33;;;25.10;99.90;;;;;;4231198;28;20113;-83
2023/09/07 08:17:30;;;;;;;6.18;3.13;;;25.30;99.90;;;;;;4226140;28;20058;-81
2023/09/07 08:19:32;;;;;;;9.15;3.55;;;25.50;99.90;;;;;;4230138;28;20534;-81
2023/09/07 08:21:33;;;;;;;6.13;3.83;;;25.60;99.90;;;;;;4224258;28;20031;-80
2023/09/07 08:23:34;;;;;;;8.63;3.60;;;25.70;99.90;;;;;;4221285;28;20541;-81
2023/09/07 08:25:35;;;;;;;7.97;4.07;;;25.70;99.90;;;;;;4222266;28;20039;-81
2023/09/07 08:27:35;;;;;;;4.00;3.03;;;25.90;99.90;;;;;;4219191;28;20067;-81
2023/09/07 08:29:36;;;;;;;5.28;3.70;;;26.10;99.90;;;;;;4226557;28;20028;-81
2023/09/07 08:31:41;;;;;;;7.50;4.00;;;26.10;99.90;;;;;;4223430;28;20039;-81
2023/09/07 08:33:41;;;;;;;6.35;3.53;;;26.20;99.90;;;;;;4228500;28;20043;-80
2023/09/07 08:35:43;;;;;;;5.72;3.97;;;26.70;99.90;;;;;;4214507;28;20051;-81
2023/09/07 08:37:44;;;;;;;8.25;4.55;;;26.50;99.90;;;;;;4218808;28;20094;-80
2023/09/07 08:39:45;;;;;;;7.72;3.90;;;26.60;99.90;;;;;;4226697;28;20036;-80
2023/09/07 08:41:46;;;;;;;7.22;3.72;;;26.70;99.90;;;;;;4218671;28;20052;-81
2023/09/07 08:43:49;;;;;;;6.45;3.63;;;26.70;99.90;;;;;;4219829;28;20044;-81
2023/09/07 08:46:14;;;;;;;5.70;3.78;;;26.80;99.90;;;;;;4226016;28;20044;-81
2023/09/07 08:48:17;;;;;;;6.22;3.50;;;27.00;99.90;;;;;;4230911;28;20482;-80
2023/09/07 08:50:19;;;;;;;6.07;3.60;;;27.10;99.90;;;;;;4229507;28;20039;-81
2023/09/07 08:52:23;;;;;;;7.72;3.78;;;27.30;99.90;;;;;;4229070;28;20121;-81
2023/09/07 08:54:24;;;;;;;7.70;3.20;;;27.70;99.90;;;;;;4230838;28;20504;-79
2023/09/07 08:56:25;;;;;;;6.43;3.47;;;28.10;99.90;;;;;;4230707;28;20039;-80
2023/09/07 08:58:26;;;;;;;8.65;3.35;;;28.40;99.90;;;;;;4230637;28;20044;-80
2023/09/07 09:00:27;;;;;;;6.70;3.08;;;28.60;99.90;;;;;;4230462;28;20479;-80
2023/09/07 09:02:29;;;;;;;4.80;3.00;;;29.00;99.90;;;;;;4220611;28;20035;-81
2023/09/07 09:04:30;;;;;;;4.65;3.10;;;29.40;99.90;;;;;;4223771;28;20040;-80
2023/09/07 09:06:30;;;;;;;7.45;2.90;;;30.00;99.90;;;;;;4217237;28;20040;-80
2023/09/07 09:08:49;;;;;;;4.57;3.15;;;30.40;99.90;;;;;;4222003;28;20047;-81
2023/09/07 09:10:58;;;;;;;6.15;3.05;;;30.90;99.90;;;;;;4217186;28;20377;-80
2023/09/07 09:12:59;;;;;;;3.88;2.97;;;31.20;99.80;;;;;;4213774;28;20110;-81
2023/09/07 09:15:03;;;;;;;4.07;3.03;;;31.30;98.80;;;;;;4225922;27;20051;-81
2023/09/07 09:17:05;;;;;;;7.88;3.58;;;31.50;98.20;;;;;;4237942;28;20360;-80
2023/09/07 09:19:07;;;;;;;3.67;2.72;;;31.60;98.00;;;;;;4238237;28;20092;-81
2023/09/07 09:21:08;;;;;;;5.20;2.78;;;31.60;97.90;;;;;;4239034;28;20114;-81
2023/09/07 09:23:12;;;;;;;9.30;3.50;;;31.90;97.50;;;;;;4240924;28;20471;-81
2023/09/07 09:25:13;;;;;;;8.18;3.42;;;32.20;96.80;;;;;;4238393;28;20087;-81
2023/09/07 09:27:13;;;;;;;4.50;2.95;;;32.30;96.30;;;;;;4230239;28;20035;-81
2023/09/07 09:29:15;;;;;;;5.50;3.35;;;32.50;95.70;;;;;;4230045;28;20119;-80
2023/09/07 09:31:16;;;;;;;6.45;3.58;;;32.70;95.40;;;;;;4212043;28;20036;-80
2023/09/07 09:33:20;;;;;;;6.28;3.38;;;32.80;95.00;;;;;;4230611;28;20372;-81
2023/09/07 09:35:23;;;;;;;7.22;3.70;;;33.10;94.40;;;;;;4245280;28;20047;-81
2023/09/07 09:37:24;;;;;;;8.00;3.00;;;33.20;94.40;;;;;;4247179;27;20035;-81
2023/09/07 09:39:25;;;;;;;5.72;3.03;;;33.30;93.90;;;;;;4250372;27;20035;-81
2023/09/07 09:41:30;;;;;;;6.30;2.90;;;33.40;93.60;;;;;;4232097;28;20413;-81
2023/09/07 09:43:31;;;;;;;4.70;3.03;;;33.50;93.30;;;;;;4250666;27;20039;-81
2023/09/07 09:45:33;;;;;;;8.80;3.97;;;33.70;93.20;;;;;;4250469;27;20047;-80
2023/09/07 09:47:38;;;;;;;5.15;3.08;;;33.70;93.00;;;;;;4250303;27;20057;-81
2023/09/07 09:49:40;;;;;;;5.40;3.38;;;33.60;92.40;;;;;;4248366;27;20039;-81
2023/09/07 09:51:42;;;;;;;5.32;3.38;;;33.60;92.70;;;;;;4247923;27;20592;-81
2023/09/07 09:53:43;;;;;;;4.18;2.88;;;33.70;92.50;;;;;;4244809;27;20039;-81
2023/09/07 09:55:44;;;;;;;5.47;2.83;;;33.70;92.50;;;;;;4236407;27;20062;-80
2023/09/07 09:57:45;;;;;;;5.35;3.13;;;33.40;93.10;;;;;;4238980;27;20047;-81
2023/09/07 09:59:46;;;;;;;3.70;2.72;;;33.30;92.90;;;;;;4243230;27;20058;-81
2023/09/07 10:01:50;;;;;;;5.35;2.67;;;33.30;92.50;;;;;;4249977;27;20047;-80
2023/09/07 10:03:53;;;;;;;6.78;3.35;;;33.30;92.30;;;;;;4250351;27;20069;-80
2023/09/07 10:05:53;;;;;;;10.75;4.57;;;33.20;91.80;;;;;;4231111;28;20070;-80
2023/09/07 10:08:02;;;;;;;6.15;3.03;;;33.10;92.30;;;;;;4249946;27;20118;-80
2023/09/07 10:10:03;;;;;;;5.22;2.58;;;33.30;92.40;;;;;;4249871;27;20512;-80
2023/09/07 10:12:08;;;;;;;6.55;2.47;;;33.40;92.20;;;;;;4250061;27;20337;-80
2023/09/07 10:14:08;;;;;;;5.45;3.13;;;33.70;92.90;;;;;;4250301;27;20121;-80
2023/09/07 10:16:09;;;;;;;7.18;2.80;;;33.90;93.10;;;;;;4250211;27;20051;-80
2023/09/07 10:18:16;;;;;;;7.18;2.72;;;34.10;91.80;;;;;;4250623;27;20069;-80
2023/09/07 10:20:23;;;;;;;5.30;2.97;;;34.10;90.50;;;;;;4255641;27;20889;-80
2023/09/07 10:22:25;;;;;;;15.30;3.85;;;34.10;91.30;;;;;;4226360;28;20036;-80
2023/09/07 10:24:33;;;;;;;4.88;2.83;;;34.30;90.90;;;;;;4242176;27;20040;-80
2023/09/07 10:26:33;;;;;;;6.43;3.03;;;33.70;90.40;;;;;;4237470;27;20042;-80
2023/09/07 10:28:34;;;;;;;6.35;2.42;;;34.30;90.60;;;;;;4236978;27;20474;-80
2023/09/07 10:30:35;;;;;;;5.25;3.10;;;34.30;90.10;;;;;;4241496;27;20036;-80
2023/09/07 10:32:42;;;;;;;7.65;3.20;;;34.50;88.60;;;;;;4239951;27;20539;-80